Time;durP1;ratioP1;P1;durP2;ratioP2;P2;SDS_P1;SDS_P2;PMS_P1;PMS_P2;Temp;Humidity;BMP_temperature;BMP_pressure;BME280_temperature;BME280_humidity;BME280_pressure;Samples;Min_cycle;Max_cycle;Signal;HPM_P1;HPM_P2
2023/05/08 00:02:10;;;;;;;12.23;10.25;;;;;;;;;;5017279;28;20043;-91
2023/05/08 00:04:37;;;;;;;13.95;11.65;;;;;;;;;;5032496;28;20040;-91
2023/05/08 00:07:05;;;;;;;12.20;10.98;;;;;;;;;;5022189;28;20045;-93
2023/05/08 00:09:32;;;;;;;12.82;11.50;;;;;;;;;;5016658;28;20494;-93
2023/05/08 00:11:59;;;;;;;12.93;10.90;;;;;;;;;;5017664;28;20056;-92
2023/05/08 00:14:29;;;;;;;12.90;11.48;;;;;;;;;;5017854;28;20056;-93
2023/05/08 00:16:57;;;;;;;14.27;11.05;;;;;;;;;;5018050;28;20065;-93
2023/05/08 00:19:24;;;;;;;13.05;11.65;;;;;;;;;;5016806;28;20078;-93
2023/05/08 00:21:51;;;;;;;13.48;12.00;;;;;;;;;;5016544;28;20042;-93
2023/05/08 00:24:19;;;;;;;13.07;11.75;;;;;;;;;;5016611;28;20137;-93
2023/05/08 00:26:46;;;;;;;12.85;11.20;;;;;;;;;;5017241;28;20050;-93
2023/05/08 00:29:13;;;;;;;12.27;11.02;;;;;;;;;;5017046;28;20045;-93
2023/05/08 00:31:41;;;;;;;12.48;11.23;;;;;;;;;;5017332;28;20062;-93
2023/05/08 00:34:08;;;;;;;12.45;11.15;;;;;;;;;;5016397;28;20052;-93
2023/05/08 00:36:35;;;;;;;13.15;11.82;;;;;;;;;;5016029;28;20056;-93
2023/05/08 00:39:02;;;;;;;13.88;11.40;;;;;;;;;;5015832;28;20053;-93
2023/05/08 00:41:29;;;;;;;12.40;11.23;;;;;;;;;;5016434;28;20057;-93
2023/05/08 00:43:56;;;;;;;16.63;12.40;;;;;;;;;;5016108;28;20414;-93
2023/05/08 00:46:24;;;;;;;14.23;12.45;;;;;;;;;;5016693;28;20061;-93
2023/05/08 00:48:51;;;;;;;15.18;13.20;;;;;;;;;;5017388;28;20084;-93
2023/05/08 00:51:18;;;;;;;12.80;11.50;;;;;;;;;;5034713;28;20536;-92
2023/05/08 00:53:45;;;;;;;15.30;12.80;;;;;;;;;;5018674;28;20054;-93
2023/05/08 00:56:14;;;;;;;15.70;11.65;;;;;;;;;;5016048;28;20053;-93
2023/05/08 00:58:41;;;;;;;14.73;13.18;;;;;;;;;;5016487;28;20054;-93
2023/05/08 01:01:09;;;;;;;15.25;13.68;;;;;;;;;;5015728;28;20045;-93
2023/05/08 01:03:37;;;;;;;14.90;13.07;;;;;;;;;;5015456;28;20053;-92
2023/05/08 01:06:05;;;;;;;13.68;12.27;;;;;;;;;;5015680;28;20057;-92
2023/05/08 01:08:33;;;;;;;13.95;12.43;;;;;;;;;;5016629;28;20050;-92
2023/05/08 01:11:00;;;;;;;14.32;12.63;;;;;;;;;;5015564;28;20050;-92
2023/05/08 01:13:40;;;;;;;15.70;11.68;;;;;;;;;;5015346;28;20053;-92
2023/05/08 01:16:15;;;;;;;16.42;12.93;;;;;;;;;;5015332;28;20046;-93
2023/05/08 01:18:46;;;;;;;14.65;12.23;;;;;;;;;;5020482;28;20449;-93
2023/05/08 01:21:31;;;;;;;16.33;13.07;;;;;;;;;;5031803;28;20424;-92
2023/05/08 01:24:17;;;;;;;19.67;13.13;;;;;;;;;;5015818;28;20053;-93
2023/05/08 01:26:44;;;;;;;16.48;14.00;;;;;;;;;;5015896;28;20042;-92
2023/05/08 01:29:29;;;;;;;18.33;13.57;;;;;;;;;;5016282;28;20046;-93
2023/05/08 01:32:17;;;;;;;17.02;14.80;;;;;;;;;;5016647;28;20050;-93
2023/05/08 01:35:04;;;;;;;17.55;14.23;;;;;;;;;;5015967;28;20133;-93
2023/05/08 01:37:37;;;;;;;14.98;12.90;;;;;;;;;;5014788;28;20052;-92
2023/05/08 01:40:10;;;;;;;14.48;12.80;;;;;;;;;;5015139;28;20141;-92
2023/05/08 01:42:44;;;;;;;14.35;12.95;;;;;;;;;;5015310;28;20069;-92
2023/05/08 01:45:16;;;;;;;14.85;13.23;;;;;;;;;;5015271;28;20042;-93
2023/05/08 01:47:44;;;;;;;14.52;12.98;;;;;;;;;;5015806;28;20056;-93
2023/05/08 01:50:17;;;;;;;19.13;14.30;;;;;;;;;;5014874;28;20053;-92
2023/05/08 01:52:52;;;;;;;17.15;13.82;;;;;;;;;;5014842;28;20061;-92
2023/05/08 01:55:24;;;;;;;16.48;14.35;;;;;;;;;;5015531;28;20502;-93
2023/05/08 01:57:53;;;;;;;16.20;14.27;;;;;;;;;;5014846;28;20050;-92
2023/05/08 02:00:22;;;;;;;21.55;15.48;;;;;;;;;;5014795;28;20058;-93
2023/05/08 02:02:50;;;;;;;19.38;15.20;;;;;;;;;;5014713;28;20049;-93
2023/05/08 02:05:20;;;;;;;21.77;16.25;;;;;;;;;;5015553;28;20050;-93
2023/05/08 02:07:48;;;;;;;17.58;15.35;;;;;;;;;;5014326;28;20061;-93
2023/05/08 02:10:16;;;;;;;19.02;15.40;;;;;;;;;;5014483;28;20050;-92
2023/05/08 02:12:44;;;;;;;17.58;15.32;;;;;;;;;;5013047;28;20133;-93
2023/05/08 02:15:13;;;;;;;21.55;16.55;;;;;;;;;;5014963;28;20512;-93
2023/05/08 02:17:41;;;;;;;23.20;17.98;;;;;;;;;;5015049;28;20074;-92
2023/05/08 02:20:13;;;;;;;20.50;17.33;;;;;;;;;;5014132;28;20057;-93
2023/05/08 02:22:42;;;;;;;24.38;17.65;;;;;;;;;;5014572;28;20053;-93
2023/05/08 02:25:13;;;;;;;21.35;17.60;;;;;;;;;;5014219;28;20105;-93
2023/05/08 02:27:45;;;;;;;18.52;16.15;;;;;;;;;;5013644;28;20053;-93
2023/05/08 02:30:13;;;;;;;21.20;16.23;;;;;;;;;;5013895;28;20136;-93
2023/05/08 02:32:43;;;;;;;19.50;15.95;;;;;;;;;;5015189;28;20117;-93
2023/05/08 02:35:14;;;;;;;19.00;16.90;;;;;;;;;;5030578;28;20052;-92
2023/05/08 02:37:45;;;;;;;17.50;15.30;;;;;;;;;;5017905;28;20056;-93
2023/05/08 02:40:13;;;;;;;21.33;15.73;;;;;;;;;;5013589;28;20587;-93
2023/05/08 02:42:41;;;;;;;19.98;16.15;;;;;;;;;;5014020;28;20053;-93
2023/05/08 02:45:10;;;;;;;20.73;18.17;;;;;;;;;;5013730;28;20403;-93
2023/05/08 02:47:57;;;;;;;23.92;17.08;;;;;;;;;;5014425;28;20407;-93
2023/05/08 02:50:28;;;;;;;19.70;16.45;;;;;;;;;;5014529;28;20457;-92
2023/05/08 02:53:02;;;;;;;25.13;17.13;;;;;;;;;;5013863;28;20060;-92
2023/05/08 02:55:33;;;;;;;18.95;16.30;;;;;;;;;;5014633;28;20129;-93
2023/05/08 02:58:03;;;;;;;23.20;16.58;;;;;;;;;;5013653;28;20513;-93
2023/05/08 03:00:32;;;;;;;20.77;15.40;;;;;;;;;;5014520;28;20050;-93
2023/05/08 03:03:00;;;;;;;19.55;16.63;;;;;;;;;;5031093;28;20089;-93
2023/05/08 03:05:32;;;;;;;22.88;16.08;;;;;;;;;;5017770;28;20049;-93
2023/05/08 03:08:03;;;;;;;20.85;16.17;;;;;;;;;;5013338;28;20053;-93
2023/05/08 03:10:34;;;;;;;25.50;16.60;;;;;;;;;;5013315;28;20414;-93
2023/05/08 03:13:03;;;;;;;20.80;15.27;;;;;;;;;;5014262;28;20054;-93
2023/05/08 03:15:35;;;;;;;21.48;15.40;;;;;;;;;;5013135;28;20513;-93
2023/05/08 03:18:06;;;;;;;17.80;14.38;;;;;;;;;;5014276;28;20057;-92
2023/05/08 03:20:35;;;;;;;20.08;15.23;;;;;;;;;;5014064;28;20049;-91
2023/05/08 03:23:02;;;;;;;16.92;14.70;;;;;;;;;;5013627;28;20081;-93
2023/05/08 03:25:30;;;;;;;17.58;14.80;;;;;;;;;;5012762;28;20050;-93
2023/05/08 03:27:58;;;;;;;19.55;15.77;;;;;;;;;;5012401;28;20417;-92
2023/05/08 03:30:26;;;;;;;15.77;14.13;;;;;;;;;;5013848;28;20475;-93
2023/05/08 03:32:54;;;;;;;17.38;14.88;;;;;;;;;;5013053;28;20056;-92
2023/05/08 03:35:22;;;;;;;17.40;13.82;;;;;;;;;;5012269;28;20499;-93
2023/05/08 03:37:49;;;;;;;17.40;15.07;;;;;;;;;;5013806;28;20050;-93
2023/05/08 03:40:16;;;;;;;20.83;16.45;;;;;;;;;;5012876;28;20046;-92
2023/05/08 03:42:44;;;;;;;19.33;15.38;;;;;;;;;;5012995;28;20410;-93
2023/05/08 03:45:13;;;;;;;24.75;17.20;;;;;;;;;;5013024;28;20054;-93
2023/05/08 03:47:40;;;;;;;20.42;16.33;;;;;;;;;;5013081;28;20050;-93
2023/05/08 03:50:09;;;;;;;23.77;18.10;;;;;;;;;;5025570;28;20073;-91
2023/05/08 03:52:38;;;;;;;19.48;16.35;;;;;;;;;;5020627;28;20049;-93
2023/05/08 03:55:05;;;;;;;22.52;16.27;;;;;;;;;;5013968;28;20498;-90
2023/05/08 03:57:35;;;;;;;16.55;14.77;;;;;;;;;;5012654;28;20042;-92
2023/05/08 04:00:06;;;;;;;21.02;14.38;;;;;;;;;;5012743;28;20096;-93
2023/05/08 04:02:38;;;;;;;18.77;14.82;;;;;;;;;;5012512;28;20086;-93
2023/05/08 04:05:20;;;;;;;15.77;14.07;;;;;;;;;;5012705;28;20145;-92
2023/05/08 04:07:52;;;;;;;15.98;14.18;;;;;;;;;;5012336;28;20061;-92
2023/05/08 04:10:30;;;;;;;20.77;14.60;;;;;;;;;;5014945;28;20068;-92
2023/05/08 04:13:08;;;;;;;15.15;13.48;;;;;;;;;;5012973;28;20050;-92
2023/05/08 04:15:43;;;;;;;16.27;12.35;;;;;;;;;;5014111;28;20096;-93
2023/05/08 04:18:14;;;;;;;14.77;12.52;;;;;;;;;;5014077;28;20073;-92
2023/05/08 04:20:41;;;;;;;38.58;21.77;;;;;;;;;;5013084;28;20081;-92
2023/05/08 04:23:13;;;;;;;39.38;24.20;;;;;;;;;;5012317;28;20062;-93
2023/05/08 04:25:42;;;;;;;36.60;22.67;;;;;;;;;;5012387;28;20061;-92
2023/05/08 04:28:09;;;;;;;37.72;22.42;;;;;;;;;;5013216;28;20056;-92
2023/05/08 04:30:37;;;;;;;28.35;19.00;;;;;;;;;;5012001;28;20049;-91
2023/05/08 04:33:05;;;;;;;20.25;15.45;;;;;;;;;;5013526;28;20100;-92
2023/05/08 04:35:33;;;;;;;24.35;15.95;;;;;;;;;;5013341;28;20042;-92
2023/05/08 04:38:00;;;;;;;26.00;15.23;;;;;;;;;;5014838;28;20510;-92
2023/05/08 04:40:27;;;;;;;16.50;13.30;;;;;;;;;;5015772;28;20061;-92
2023/05/08 04:42:55;;;;;;;16.77;13.15;;;;;;;;;;5016054;28;20136;-92
2023/05/08 04:45:22;;;;;;;21.52;15.32;;;;;;;;;;5016743;28;20433;-92
2023/05/08 04:47:49;;;;;;;22.38;16.25;;;;;;;;;;5016246;28;20088;-92
2023/05/08 04:50:16;;;;;;;19.80;14.55;;;;;;;;;;5015728;28;20050;-92
2023/05/08 04:52:44;;;;;;;24.02;16.00;;;;;;;;;;5015879;28;20072;-92
2023/05/08 04:55:11;;;;;;;20.65;16.13;;;;;;;;;;5015773;28;20046;-91
2023/05/08 04:57:38;;;;;;;22.67;15.52;;;;;;;;;;5015690;28;20050;-93
2023/05/08 05:00:06;;;;;;;22.45;16.42;;;;;;;;;;5015515;28;20075;-92
2023/05/08 05:02:33;;;;;;;21.63;15.77;;;;;;;;;;5015758;28;20046;-92
2023/05/08 05:05:00;;;;;;;24.00;16.75;;;;;;;;;;5023530;28;20057;-93
2023/05/08 05:07:28;;;;;;;27.75;17.92;;;;;;;;;;5027794;28;20134;-93
2023/05/08 05:09:55;;;;;;;25.25;17.60;;;;;;;;;;5017388;28;20421;-93
2023/05/08 05:12:22;;;;;;;25.02;18.55;;;;;;;;;;5015945;28;20088;-92
2023/05/08 05:14:49;;;;;;;32.17;19.63;;;;;;;;;;5029507;28;20052;-93
2023/05/08 05:17:16;;;;;;;34.03;24.30;;;;;;;;;;5023516;28;20045;-92
2023/05/08 05:19:44;;;;;;;26.35;18.73;;;;;;;;;;5015078;28;20130;-92
2023/05/08 05:22:11;;;;;;;30.48;22.13;;;;;;;;;;5015148;28;20060;-93
2023/05/08 05:24:39;;;;;;;27.17;18.45;;;;;;;;;;5016112;28;20417;-92
2023/05/08 05:27:06;;;;;;;22.23;16.15;;;;;;;;;;5015329;28;20054;-92
2023/05/08 05:29:34;;;;;;;26.83;16.60;;;;;;;;;;5015313;28;20053;-92
2023/05/08 05:32:02;;;;;;;23.58;17.08;;;;;;;;;;5015657;28;20052;-93
2023/05/08 05:34:29;;;;;;;21.75;17.13;;;;;;;;;;5015180;28;20057;-93
2023/05/08 05:36:56;;;;;;;23.05;16.52;;;;;;;;;;5016192;28;20054;-92
2023/05/08 05:39:23;;;;;;;18.48;14.88;;;;;;;;;;5016095;28;20073;-92
2023/05/08 05:41:50;;;;;;;17.58;14.38;;;;;;;;;;5014984;28;20049;-93
2023/05/08 05:44:18;;;;;;;17.95;13.68;;;;;;;;;;5014857;28;20050;-92
2023/05/08 05:46:45;;;;;;;16.55;13.00;;;;;;;;;;5015628;28;20467;-92
2023/05/08 05:49:12;;;;;;;16.52;12.23;;;;;;;;;;5014249;28;20054;-93
2023/05/08 05:51:39;;;;;;;15.55;12.45;;;;;;;;;;5014615;28;20084;-92
2023/05/08 05:54:06;;;;;;;14.68;12.10;;;;;;;;;;5015764;28;20052;-93
2023/05/08 05:56:34;;;;;;;17.52;11.82;;;;;;;;;;5014605;28;20053;-93
2023/05/08 05:59:01;;;;;;;18.23;11.30;;;;;;;;;;5014538;28;20491;-92
2023/05/08 06:01:28;;;;;;;15.68;10.85;;;;;;;;;;5015483;28;20422;-93
2023/05/08 06:03:55;;;;;;;13.75;10.50;;;;;;;;;;5015643;28;20064;-93
2023/05/08 06:06:23;;;;;;;11.15;9.52;;;;;;;;;;5015091;28;20076;-92
2023/05/08 06:08:50;;;;;;;11.60;8.45;;;;;;;;;;5015365;28;20065;-93
2023/05/08 06:11:18;;;;;;;12.00;9.05;;;;;;;;;;5014376;28;20056;-93
2023/05/08 06:13:45;;;;;;;9.43;8.40;;;;;;;;;;5014204;28;20054;-92
2023/05/08 06:16:15;;;;;;;8.88;7.97;;;;;;;;;;5015305;28;20455;-92
2023/05/08 06:18:42;;;;;;;14.68;9.30;;;;;;;;;;5014195;28;20050;-90
2023/05/08 06:21:09;;;;;;;12.15;10.15;;;;;;;;;;5026875;28;20053;-92
2023/05/08 06:23:36;;;;;;;11.70;9.40;;;;;;;;;;5017671;28;20061;-92
2023/05/08 06:26:03;;;;;;;13.80;9.93;;;;;;;;;;5013782;28;20046;-92
2023/05/08 06:28:31;;;;;;;17.80;9.75;;;;;;;;;;5013988;28;20049;-92
2023/05/08 06:30:58;;;;;;;13.93;9.98;;;;;;;;;;5014212;28;20048;-92
2023/05/08 06:33:25;;;;;;;15.23;8.80;;;;;;;;;;5015137;28;20053;-91
2023/05/08 06:35:53;;;;;;;11.50;8.38;;;;;;;;;;5013901;28;20557;-92
2023/05/08 06:38:20;;;;;;;13.07;8.63;;;;;;;;;;5014230;28;20384;-93
2023/05/08 06:40:49;;;;;;;15.38;9.10;;;;;;;;;;5014034;28;20041;-92
2023/05/08 06:43:16;;;;;;;10.40;9.05;;;;;;;;;;5015047;28;20483;-93
2023/05/08 06:45:44;;;;;;;11.80;8.20;;;;;;;;;;5014279;28;20050;-92
2023/05/08 06:48:11;;;;;;;17.95;8.32;;;;;;;;;;5015053;28;20057;-92
2023/05/08 06:50:39;;;;;;;20.63;8.82;;;;;;;;;;5015241;28;20050;-93
2023/05/08 06:53:07;;;;;;;13.82;8.55;;;;;;;;;;5015066;28;20128;-93
2023/05/08 06:55:34;;;;;;;15.68;7.80;;;;;;;;;;5012948;28;20062;-93
2023/05/08 06:58:02;;;;;;;13.90;8.05;;;;;;;;;;5013961;28;20148;-93
2023/05/08 07:00:29;;;;;;;13.88;7.85;;;;;;;;;;5014294;28;20486;-93
2023/05/08 07:02:56;;;;;;;11.93;7.35;;;;;;;;;;5014525;28;20564;-93
2023/05/08 07:05:23;;;;;;;8.98;7.35;;;;;;;;;;5014877;28;20046;-93
2023/05/08 07:07:52;;;;;;;12.40;7.00;;;;;;;;;;5013756;28;20046;-93
2023/05/08 07:10:21;;;;;;;9.00;6.30;;;;;;;;;;5014439;28;20054;-93
2023/05/08 07:12:49;;;;;;;25.10;18.15;;;;;;;;;;5014084;28;20129;-92
2023/05/08 07:15:17;;;;;;;8.63;6.95;;;;;;;;;;5014383;28;20050;-92
2023/05/08 07:17:50;;;;;;;12.80;9.27;;;;;;;;;;5014854;28;20053;-92
2023/05/08 07:20:17;;;;;;;10.25;6.57;;;;;;;;;;5015479;28;20406;-93
2023/05/08 07:22:45;;;;;;;18.40;14.23;;;;;;;;;;5015036;28;20057;-92
2023/05/08 07:25:12;;;;;;;7.93;6.22;;;;;;;;;;5032970;28;20061;-92
2023/05/08 07:27:41;;;;;;;7.45;6.68;;;;;;;;;;5001896;28;20046;-92
2023/05/08 07:30:08;;;;;;;6.43;5.78;;;;;;;;;;5013182;28;20050;-93
2023/05/08 07:32:37;;;;;;;5.80;5.05;;;;;;;;;;5013177;28;20050;-93
2023/05/08 07:35:07;;;;;;;6.78;6.07;;;;;;;;;;5016889;28;20054;-92
2023/05/08 07:37:37;;;;;;;10.20;5.68;;;;;;;;;;5026336;28;20418;-93
2023/05/08 07:40:04;;;;;;;5.10;4.50;;;;;;;;;;5013967;28;20076;-94
2023/05/08 07:42:37;;;;;;;7.32;6.50;;;;;;;;;;5013874;28;20053;-94
2023/05/08 07:45:04;;;;;;;4.30;4.00;;;;;;;;;;5013902;28;20049;-93
2023/05/08 07:47:31;;;;;;;4.22;3.80;;;;;;;;;;5012810;28;20052;-93
2023/05/08 07:49:59;;;;;;;4.93;4.10;;;;;;;;;;5013668;28;20079;-94
2023/05/08 07:52:26;;;;;;;4.68;3.97;;;;;;;;;;5013282;28;20110;-92
2023/05/08 07:54:53;;;;;;;3.83;3.53;;;;;;;;;;5012832;28;20049;-92
2023/05/08 07:57:20;;;;;;;3.72;3.28;;;;;;;;;;5012914;28;20077;-90
2023/05/08 07:59:47;;;;;;;3.40;3.20;;;;;;;;;;5012882;28;20046;-91
2023/05/08 08:02:15;;;;;;;5.30;4.07;;;;;;;;;;5012824;28;20061;-90
2023/05/08 08:04:42;;;;;;;3.78;3.58;;;;;;;;;;5012338;28;20479;-91
2023/05/08 08:07:09;;;;;;;3.95;2.85;;;;;;;;;;5013174;28;20049;-91
2023/05/08 08:09:37;;;;;;;3.78;3.40;;;;;;;;;;5014435;28;20140;-90
2023/05/08 08:12:04;;;;;;;3.55;3.35;;;;;;;;;;5012302;28;20509;-91
2023/05/08 08:14:31;;;;;;;3.33;3.10;;;;;;;;;;5018057;28;20054;-91
2023/05/08 08:16:59;;;;;;;5.03;3.42;;;;;;;;;;5018774;28;20467;-90
2023/05/08 08:19:26;;;;;;;4.80;3.20;;;;;;;;;;5017286;28;20100;-87
2023/05/08 08:21:53;;;;;;;4.03;3.67;;;;;;;;;;5017215;28;20052;-89
2023/05/08 08:24:20;;;;;;;5.35;3.88;;;;;;;;;;5017234;28;20056;-90
2023/05/08 08:26:48;;;;;;;4.78;4.05;;;;;;;;;;5016750;28;20072;-90
2023/05/08 08:29:15;;;;;;;4.70;4.20;;;;;;;;;;5017901;28;20054;-92
2023/05/08 08:31:42;;;;;;;3.45;3.25;;;;;;;;;;5017578;28;20058;-92
2023/05/08 08:34:10;;;;;;;3.63;3.33;;;;;;;;;;5018454;28;20050;-91
2023/05/08 08:36:38;;;;;;;3.78;3.47;;;;;;;;;;5016740;28;20053;-91
2023/05/08 08:39:05;;;;;;;3.83;3.53;;;;;;;;;;5017949;28;20050;-91
2023/05/08 08:41:38;;;;;;;3.78;3.40;;;;;;;;;;5017181;28;20129;-90
2023/05/08 08:44:05;;;;;;;3.55;3.08;;;;;;;;;;5016640;28;20076;-91
2023/05/08 08:46:33;;;;;;;4.28;3.85;;;;;;;;;;5017105;28;20049;-90
2023/05/08 08:49:03;;;;;;;3.20;3.00;;;;;;;;;;5017364;28;20046;-90
2023/05/08 08:51:43;;;;;;;4.20;3.90;;;;;;;;;;5020419;28;20057;-90
2023/05/08 08:54:12;;;;;;;3.50;3.30;;;;;;;;;;5019591;28;20071;-92
2023/05/08 08:56:41;;;;;;;4.00;3.65;;;;;;;;;;5015675;28;20490;-89
2023/05/08 08:59:10;;;;;;;4.13;3.83;;;;;;;;;;5016750;28;20473;-87
2023/05/08 09:01:39;;;;;;;7.47;4.10;;;;;;;;;;5016020;28;20096;-90
2023/05/08 09:04:07;;;;;;;5.10;4.40;;;;;;;;;;5017234;28;20477;-90
2023/05/08 09:06:35;;;;;;;5.80;4.18;;;;;;;;;;5015624;28;20161;-89
2023/05/08 09:09:05;;;;;;;4.50;4.20;;;;;;;;;;5015487;28;20057;-91
2023/05/08 09:11:32;;;;;;;4.43;4.10;;;;;;;;;;5015739;28;20491;-91
2023/05/08 09:14:00;;;;;;;3.85;3.58;;;;;;;;;;5016967;28;20136;-92
2023/05/08 09:16:28;;;;;;;3.95;3.65;;;;;;;;;;5015614;28;20100;-93
2023/05/08 09:18:55;;;;;;;5.68;4.07;;;;;;;;;;5016315;28;20050;-91
2023/05/08 09:21:23;;;;;;;3.67;3.38;;;;;;;;;;5015883;28;20046;-90
2023/05/08 09:23:56;;;;;;;7.55;4.10;;;;;;;;;;5014734;28;20132;-89
2023/05/08 09:26:32;;;;;;;8.55;4.30;;;;;;;;;;5015387;28;20046;-89
2023/05/08 09:29:09;;;;;;;4.55;3.95;;;;;;;;;;5016833;28;20052;-89
2023/05/08 09:31:40;;;;;;;5.80;4.20;;;;;;;;;;5018620;28;20054;-89
2023/05/08 09:34:08;;;;;;;10.50;4.57;;;;;;;;;;5027018;28;20079;-87
2023/05/08 09:36:36;;;;;;;5.03;4.63;;;;;;;;;;5015929;28;20136;-90
2023/05/08 09:39:03;;;;;;;4.63;4.25;;;;;;;;;;5016057;28;20050;-90
2023/05/08 09:41:30;;;;;;;4.10;3.80;;;;;;;;;;5015206;28;20052;-90
2023/05/08 09:44:04;;;;;;;4.60;3.75;;;;;;;;;;5014746;28;20049;-88
2023/05/08 09:46:32;;;;;;;4.15;3.83;;;;;;;;;;5015656;28;20132;-90
2023/05/08 09:49:01;;;;;;;6.05;3.65;;;;;;;;;;5016325;28;20052;-93
2023/05/08 09:51:30;;;;;;;4.18;3.78;;;;;;;;;;5015616;28;20252;-91
2023/05/08 09:53:58;;;;;;;6.15;4.38;;;;;;;;;;5015152;28;20056;-89
2023/05/08 09:56:35;;;;;;;5.72;4.03;;;;;;;;;;5014760;28;20053;-90
2023/05/08 09:59:03;;;;;;;5.55;4.07;;;;;;;;;;5014878;28;20080;-87
2023/05/08 10:01:32;;;;;;;4.30;3.90;;;;;;;;;;5015547;28;20060;-88
2023/05/08 10:04:00;;;;;;;5.05;4.07;;;;;;;;;;5015715;28;20088;-89
2023/05/08 10:06:28;;;;;;;3.67;3.38;;;;;;;;;;5019254;28;20045;-91
2023/05/08 10:09:08;;;;;;;4.05;3.65;;;;;;;;;;5022921;28;20050;-88
2023/05/08 10:11:36;;;;;;;6.45;4.00;;;;;;;;;;5015338;28;20053;-87
2023/05/08 10:14:03;;;;;;;4.10;3.75;;;;;;;;;;5014249;28;20064;-89
2023/05/08 10:16:30;;;;;;;3.70;3.40;;;;;;;;;;5014660;28;20052;-89
2023/05/08 10:19:01;;;;;;;4.93;3.90;;;;;;;;;;5014337;28;20049;-86
2023/05/08 10:21:28;;;;;;;4.68;3.90;;;;;;;;;;5015318;28;20046;-90
2023/05/08 10:23:56;;;;;;;7.05;4.10;;;;;;;;;;5014262;28;20065;-89
2023/05/08 10:26:29;;;;;;;4.82;4.18;;;;;;;;;;5014405;28;20060;-88
2023/05/08 10:28:57;;;;;;;9.50;4.13;;;;;;;;;;5015229;28;20045;-88
2023/05/08 10:31:25;;;;;;;5.75;4.50;;;;;;;;;;5014819;28;20088;-92
2023/05/08 10:33:55;;;;;;;4.97;3.90;;;;;;;;;;5014369;28;20096;-89
2023/05/08 10:36:23;;;;;;;6.15;3.63;;;;;;;;;;5013934;28;20394;-90
2023/05/08 10:38:51;;;;;;;3.88;3.67;;;;;;;;;;5015356;28;20081;-89
2023/05/08 10:41:19;;;;;;;4.18;3.88;;;;;;;;;;5015182;28;20061;-90
2023/05/08 10:43:46;;;;;;;5.53;3.90;;;;;;;;;;5014191;28;20550;-90
2023/05/08 10:46:49;;;;;;;6.65;4.07;;;;;;;;;;5013846;28;20553;-87
2023/05/08 10:49:19;;;;;;;4.95;4.55;;;;;;;;;;5013299;28;20042;-92
2023/05/08 10:52:01;;;;;;;4.38;4.07;;;;;;;;;;5026885;28;20463;-90
2023/05/08 10:54:32;;;;;;;5.97;3.38;;;;;;;;;;5013608;28;20061;-90
2023/05/08 10:57:17;;;;;;;4.13;3.40;;;;;;;;;;5013761;28;20053;-89
2023/05/08 10:59:45;;;;;;;5.90;3.70;;;;;;;;;;5015095;28;20042;-89
2023/05/08 11:02:14;;;;;;;3.78;3.47;;;;;;;;;;5013923;28;20132;-88
2023/05/08 11:04:42;;;;;;;7.57;3.25;;;;;;;;;;5013983;28;20327;-89
2023/05/08 11:07:10;;;;;;;3.42;3.20;;;;;;;;;;5013653;28;20056;-91
2023/05/08 11:09:40;;;;;;;3.40;3.20;;;;;;;;;;5013982;28;20045;-89
2023/05/08 11:12:15;;;;;;;3.70;3.40;;;;;;;;;;5014075;28;20042;-90
2023/05/08 11:14:44;;;;;;;3.40;3.20;;;;;;;;;;5014786;28;20104;-91
2023/05/08 11:17:11;;;;;;;5.07;4.10;;;;;;;;;;5015037;28;20407;-88
2023/05/08 11:19:38;;;;;;;3.75;3.45;;;;;;;;;;5014412;28;20050;-88
2023/05/08 11:22:23;;;;;;;5.45;4.13;;;;;;;;;;5014570;28;20061;-91
2023/05/08 11:24:56;;;;;;;4.05;3.75;;;;;;;;;;5017377;28;20490;-90
2023/05/08 11:27:41;;;;;;;4.18;3.80;;;;;;;;;;5013471;28;20053;-87
2023/05/08 11:30:18;;;;;;;3.95;3.33;;;;;;;;;;5013218;28;20097;-87
2023/05/08 11:33:03;;;;;;;4.72;3.45;;;;;;;;;;5014185;28;20133;-90
2023/05/08 11:35:50;;;;;;;3.97;3.53;;;;;;;;;;5013402;28;20050;-89
2023/05/08 11:38:27;;;;;;;3.72;3.47;;;;;;;;;;5013570;28;20060;-90
2023/05/08 11:41:01;;;;;;;3.75;3.45;;;;;;;;;;5014405;28;20041;-90
2023/05/08 11:43:37;;;;;;;4.55;2.97;;;;;;;;;;5027370;28;20056;-87
2023/05/08 11:46:07;;;;;;;3.50;3.20;;;;;;;;;;5015601;28;20050;-89
2023/05/08 11:48:34;;;;;;;3.45;3.25;;;;;;;;;;5012654;28;20056;-89
2023/05/08 11:51:02;;;;;;;2.92;2.72;;;;;;;;;;5013824;28;20490;-90
2023/05/08 11:53:30;;;;;;;3.00;2.83;;;;;;;;;;5012396;28;20092;-92
2023/05/08 11:55:58;;;;;;;5.07;3.20;;;;;;;;;;5013510;28;20049;-89
2023/05/08 11:58:25;;;;;;;3.38;2.90;;;;;;;;;;5013805;28;20046;-88
2023/05/08 12:00:53;;;;;;;3.70;2.88;;;;;;;;;;5012610;28;20509;-90
2023/05/08 12:03:21;;;;;;;3.00;2.80;;;;;;;;;;5013002;28;20053;-86
2023/05/08 12:05:49;;;;;;;2.67;2.47;;;;;;;;;;5012700;28;20054;-88
2023/05/08 12:08:17;;;;;;;3.63;2.72;;;;;;;;;;5013038;28;20054;-89
2023/05/08 12:10:55;;;;;;;4.70;2.83;;;;;;;;;;5013723;28;20140;-89
2023/05/08 12:13:26;;;;;;;2.75;2.65;;;;;;;;;;5012940;28;20045;-88
2023/05/08 12:15:55;;;;;;;4.93;2.90;;;;;;;;;;5013429;28;20479;-89
2023/05/08 12:18:23;;;;;;;2.70;2.60;;;;;;;;;;5014053;28;20049;-89
2023/05/08 12:20:51;;;;;;;2.75;2.55;;;;;;;;;;5012876;28;20052;-90
2023/05/08 12:23:19;;;;;;;6.55;2.95;;;;;;;;;;5014023;28;20050;-91
2023/05/08 12:25:46;;;;;;;4.07;2.75;;;;;;;;;;5013754;28;20053;-91
2023/05/08 12:28:15;;;;;;;4.05;2.85;;;;;;;;;;5013248;28;20049;-88
2023/05/08 12:30:42;;;;;;;4.43;2.47;;;;;;;;;;5013499;28;20092;-90
2023/05/08 12:33:10;;;;;;;3.88;2.92;;;;;;;;;;5012754;28;20073;-90
2023/05/08 12:35:38;;;;;;;3.03;2.83;;;;;;;;;;5013132;28;20486;-87
2023/05/08 12:38:06;;;;;;;2.70;2.60;;;;;;;;;;5017740;28;20064;-90
2023/05/08 12:40:34;;;;;;;3.30;3.10;;;;;;;;;;5017968;28;20056;-90
2023/05/08 12:43:03;;;;;;;2.67;2.47;;;;;;;;;;5012772;28;20136;-90
2023/05/08 12:45:32;;;;;;;3.47;3.20;;;;;;;;;;5012912;28;20469;-87
2023/05/08 12:48:01;;;;;;;4.63;3.30;;;;;;;;;;5012873;28;20057;-88
2023/05/08 12:50:31;;;;;;;8.65;3.67;;;;;;;;;;5012751;28;20046;-89
2023/05/08 12:53:04;;;;;;;4.75;2.70;;;;;;;;;;5013217;28;20058;-89
2023/05/08 12:55:33;;;;;;;3.38;3.17;;;;;;;;;;5012488;28;20062;-89
2023/05/08 12:58:07;;;;;;;3.00;2.72;;;;;;;;;;5013498;28;20346;-89
2023/05/08 13:00:45;;;;;;;2.75;2.55;;;;;;;;;;5014783;28;20140;-89
2023/05/08 13:03:13;;;;;;;3.55;2.72;;;;;;;;;;4996205;28;20502;-86
2023/05/08 13:05:42;;;;;;;2.42;2.30;;;;;;;;;;4996045;28;20050;-88
2023/05/08 13:08:09;;;;;;;2.45;2.35;;;;;;;;;;4995735;28;20058;-89
2023/05/08 13:10:50;;;;;;;2.90;2.70;;;;;;;;;;4995678;28;20145;-89
2023/05/08 13:13:24;;;;;;;2.53;2.33;;;;;;;;;;4996021;28;20082;-87
2023/05/08 13:15:53;;;;;;;2.53;2.38;;;;;;;;;;4995878;28;20047;-89
2023/05/08 13:18:21;;;;;;;4.25;2.38;;;;;;;;;;4995979;28;20054;-89
2023/05/08 13:20:48;;;;;;;2.22;2.13;;;;;;;;;;4996540;28;20070;-90
2023/05/08 13:23:15;;;;;;;2.88;2.13;;;;;;;;;;4997291;28;20059;-89
2023/05/08 13:25:42;;;;;;;2.75;2.25;;;;;;;;;;4996687;28;20054;-92
2023/05/08 13:28:10;;;;;;;2.20;2.10;;;;;;;;;;4997600;28;20053;-90
2023/05/08 13:30:37;;;;;;;2.05;1.95;;;;;;;;;;4996043;28;20061;-90
2023/05/08 13:33:05;;;;;;;3.75;1.90;;;;;;;;;;4996433;28;20097;-92
2023/05/08 13:35:33;;;;;;;2.15;2.05;;;;;;;;;;4997181;28;20054;-90
2023/05/08 13:38:00;;;;;;;1.65;1.55;;;;;;;;;;4995904;28;20060;-90
2023/05/08 13:40:28;;;;;;;1.50;1.40;;;;;;;;;;4995619;28;20486;-90
2023/05/08 13:42:55;;;;;;;1.92;1.50;;;;;;;;;;4995600;28;20085;-90
2023/05/08 13:45:22;;;;;;;1.60;1.50;;;;;;;;;;4996865;28;20137;-90
2023/05/08 13:47:50;;;;;;;3.80;1.67;;;;;;;;;;4995983;28;20517;-89
2023/05/08 13:50:20;;;;;;;3.20;1.35;;;;;;;;;;4996161;28;20462;-90
2023/05/08 13:52:47;;;;;;;3.00;1.50;;;;;;;;;;5005009;28;20050;-89
2023/05/08 13:55:15;;;;;;;1.65;1.40;;;;;;;;;;5002461;28;20487;-90
2023/05/08 13:57:43;;;;;;;2.85;1.10;;;;;;;;;;4997985;28;20480;-91
2023/05/08 14:00:10;;;;;;;1.10;1.00;;;;;;;;;;4995309;28;20058;-90
2023/05/08 14:02:37;;;;;;;1.17;1.15;;;;;;;;;;4995072;28;20459;-89
2023/05/08 14:05:08;;;;;;;0.93;0.93;;;;;;;;;;4994890;28;20054;-91
2023/05/08 14:07:36;;;;;;;1.77;1.10;;;;;;;;;;4995212;28;20057;-88
2023/05/08 14:10:03;;;;;;;1.58;1.10;;;;;;;;;;4994598;28;20096;-90
2023/05/08 14:12:34;;;;;;;1.30;1.20;;;;;;;;;;4993746;28;20054;-90
2023/05/08 14:15:03;;;;;;;2.92;1.42;;;;;;;;;;4993917;28;20050;-89
2023/05/08 14:17:31;;;;;;;4.03;1.15;;;;;;;;;;4995275;28;20054;-90
2023/05/08 14:19:58;;;;;;;3.20;0.88;;;;;;;;;;4994971;28;20053;-89
2023/05/08 14:22:25;;;;;;;1.73;0.80;;;;;;;;;;4994289;28;20521;-89
2023/05/08 14:24:55;;;;;;;2.63;0.90;;;;;;;;;;4996128;28;20057;-91
2023/05/08 14:27:22;;;;;;;1.90;1.00;;;;;;;;;;4994667;28;20046;-89
2023/05/08 14:29:49;;;;;;;1.83;1.23;;;;;;;;;;4994814;28;20475;-89
2023/05/08 14:32:16;;;;;;;3.63;1.10;;;;;;;;;;4994454;28;20557;-88
2023/05/08 14:34:44;;;;;;;1.60;1.42;;;;;;;;;;4995062;28;20411;-90
2023/05/08 14:37:11;;;;;;;1.67;1.33;;;;;;;;;;4995400;28;20050;-89
2023/05/08 14:39:39;;;;;;;0.98;0.98;;;;;;;;;;4994046;28;20560;-89
2023/05/08 14:42:06;;;;;;;1.52;1.20;;;;;;;;;;4995374;28;20050;-90
2023/05/08 14:44:36;;;;;;;1.27;1.23;;;;;;;;;;4993966;28;20056;-92